sensor_id;sensor_type;location;lat;lon;timestamp;temperature;humidity
3752;DHT22;50827;47.014;7.652;2024-03-08T00:02:15;3.20;99.90
3752;DHT22;50827;47.014;7.652;2024-03-08T00:04:41;3.20;99.90
3752;DHT22;50827;47.014;7.652;2024-03-08T00:07:08;3.20;99.90
3752;DHT22;50827;47.014;7.652;2024-03-08T00:09:35;3.20;99.90
3752;DHT22;50827;47.014;7.652;2024-03-08T00:12:03;3.10;99.90
3752;DHT22;50827;47.014;7.652;2024-03-08T00:14:30;3.10;99.90
3752;DHT22;50827;47.014;7.652;2024-03-08T00:16:57;3.10;99.90
3752;DHT22;50827;47.014;7.652;2024-03-08T00:19:23;3.10;99.90
3752;DHT22;50827;47.014;7.652;2024-03-08T00:21:50;3.10;99.90
3752;DHT22;50827;47.014;7.652;2024-03-08T00:24:17;3.10;99.90
3752;DHT22;50827;47.014;7.652;2024-03-08T00:26:44;3.10;99.90
3752;DHT22;50827;47.014;7.652;2024-03-08T00:29:10;3.20;99.90
3752;DHT22;50827;47.014;7.652;2024-03-08T00:31:37;3.10;99.90
3752;DHT22;50827;47.014;7.652;2024-03-08T00:34:04;3.10;99.90
3752;DHT22;50827;47.014;7.652;2024-03-08T00:36:31;3.10;99.90
3752;DHT22;50827;47.014;7.652;2024-03-08T00:38:57;3.10;99.90
3752;DHT22;50827;47.014;7.652;2024-03-08T00:41:27;3.00;99.90
3752;DHT22;50827;47.014;7.652;2024-03-08T00:43:54;2.90;99.90
3752;DHT22;50827;47.014;7.652;2024-03-08T00:46:21;2.90;99.90
3752;DHT22;50827;47.014;7.652;2024-03-08T00:48:48;2.90;99.90
3752;DHT22;50827;47.014;7.652;2024-03-08T00:51:15;2.90;99.90
3752;DHT22;50827;47.014;7.652;2024-03-08T00:53:42;3.00;99.90
3752;DHT22;50827;47.014;7.652;2024-03-08T00:56:09;3.00;99.90
3752;DHT22;50827;47.014;7.652;2024-03-08T00:58:37;3.00;99.90
3752;DHT22;50827;47.014;7.652;2024-03-08T01:01:04;3.00;99.90
3752;DHT22;50827;47.014;7.652;2024-03-08T01:03:31;3.00;99.90
3752;DHT22;50827;47.014;7.652;2024-03-08T01:05:58;2.90;99.90
3752;DHT22;50827;47.014;7.652;2024-03-08T01:08:28;3.00;99.90
3752;DHT22;50827;47.014;7.652;2024-03-08T01:10:55;2.90;99.90
3752;DHT22;50827;47.014;7.652;2024-03-08T01:13:22;2.90;99.90
3752;DHT22;50827;47.014;7.652;2024-03-08T01:15:48;2.90;99.90
3752;DHT22;50827;47.014;7.652;2024-03-08T01:18:15;2.90;99.90
3752;DHT22;50827;47.014;7.652;2024-03-08T01:20:42;2.80;99.90
3752;DHT22;50827;47.014;7.652;2024-03-08T01:23:09;2.80;99.90
3752;DHT22;50827;47.014;7.652;2024-03-08T01:25:35;2.90;99.90
3752;DHT22;50827;47.014;7.652;2024-03-08T01:28:02;2.80;99.90
3752;DHT22;50827;47.014;7.652;2024-03-08T01:30:29;2.80;99.90
3752;DHT22;50827;47.014;7.652;2024-03-08T01:32:56;2.80;99.90
3752;DHT22;50827;47.014;7.652;2024-03-08T01:35:23;2.80;99.90
3752;DHT22;50827;47.014;7.652;2024-03-08T01:37:50;2.80;99.90
3752;DHT22;50827;47.014;7.652;2024-03-08T01:40:17;2.80;99.90
3752;DHT22;50827;47.014;7.652;2024-03-08T01:42:43;2.80;99.90
3752;DHT22;50827;47.014;7.652;2024-03-08T01:45:11;2.80;99.90
3752;DHT22;50827;47.014;7.652;2024-03-08T01:47:38;2.70;99.90
3752;DHT22;50827;47.014;7.652;2024-03-08T01:50:06;2.70;99.90
3752;DHT22;50827;47.014;7.652;2024-03-08T01:52:34;2.60;99.90
3752;DHT22;50827;47.014;7.652;2024-03-08T01:55:02;2.60;99.90
3752;DHT22;50827;47.014;7.652;2024-03-08T01:57:35;2.50;99.90
3752;DHT22;50827;47.014;7.652;2024-03-08T02:00:05;2.50;99.90
3752;DHT22;50827;47.014;7.652;2024-03-08T02:02:33;2.50;99.90
3752;DHT22;50827;47.014;7.652;2024-03-08T02:05:06;2.50;99.90
3752;DHT22;50827;47.014;7.652;2024-03-08T02:07:34;2.40;99.90
3752;DHT22;50827;47.014;7.652;2024-03-08T02:10:01;2.40;99.90
3752;DHT22;50827;47.014;7.652;2024-03-08T02:12:28;2.50;99.90
3752;DHT22;50827;47.014;7.652;2024-03-08T02:14:55;2.50;99.90
3752;DHT22;50827;47.014;7.652;2024-03-08T02:17:22;2.40;99.90
3752;DHT22;50827;47.014;7.652;2024-03-08T02:19:49;2.40;99.90
3752;DHT22;50827;47.014;7.652;2024-03-08T02:22:15;2.50;99.90
3752;DHT22;50827;47.014;7.652;2024-03-08T02:24:43;2.40;99.90
3752;DHT22;50827;47.014;7.652;2024-03-08T02:27:11;2.40;99.90
3752;DHT22;50827;47.014;7.652;2024-03-08T02:29:39;2.40;99.90
3752;DHT22;50827;47.014;7.652;2024-03-08T02:32:07;2.40;99.90
3752;DHT22;50827;47.014;7.652;2024-03-08T02:34:34;2.30;99.90
3752;DHT22;50827;47.014;7.652;2024-03-08T02:37:01;2.30;99.90
3752;DHT22;50827;47.014;7.652;2024-03-08T02:39:28;2.20;99.90
3752;DHT22;50827;47.014;7.652;2024-03-08T02:41:55;2.20;99.90
3752;DHT22;50827;47.014;7.652;2024-03-08T02:44:21;2.20;99.90
3752;DHT22;50827;47.014;7.652;2024-03-08T02:46:48;2.20;99.90
3752;DHT22;50827;47.014;7.652;2024-03-08T02:49:15;2.10;99.90
3752;DHT22;50827;47.014;7.652;2024-03-08T02:51:42;2.20;99.90
3752;DHT22;50827;47.014;7.652;2024-03-08T02:54:09;2.20;99.90
3752;DHT22;50827;47.014;7.652;2024-03-08T02:56:37;2.10;99.90
3752;DHT22;50827;47.014;7.652;2024-03-08T02:59:03;2.10;99.90
3752;DHT22;50827;47.014;7.652;2024-03-08T03:01:30;2.10;99.90
3752;DHT22;50827;47.014;7.652;2024-03-08T03:03:58;2.10;99.90
3752;DHT22;50827;47.014;7.652;2024-03-08T03:06:25;2.10;99.90
3752;DHT22;50827;47.014;7.652;2024-03-08T03:08:52;2.10;99.90
3752;DHT22;50827;47.014;7.652;2024-03-08T03:11:20;2.00;99.90
3752;DHT22;50827;47.014;7.652;2024-03-08T03:13:47;2.00;99.90
3752;DHT22;50827;47.014;7.652;2024-03-08T03:16:19;2.00;99.90
3752;DHT22;50827;47.014;7.652;2024-03-08T03:18:46;2.00;99.90
3752;DHT22;50827;47.014;7.652;2024-03-08T03:21:14;2.00;99.90
3752;DHT22;50827;47.014;7.652;2024-03-08T03:23:41;2.00;99.90
3752;DHT22;50827;47.014;7.652;2024-03-08T03:26:11;1.90;99.90
3752;DHT22;50827;47.014;7.652;2024-03-08T03:28:39;1.90;99.90
3752;DHT22;50827;47.014;7.652;2024-03-08T03:31:07;2.00;99.90
3752;DHT22;50827;47.014;7.652;2024-03-08T03:33:36;1.90;99.90
3752;DHT22;50827;47.014;7.652;2024-03-08T03:36:04;1.90;99.90
3752;DHT22;50827;47.014;7.652;2024-03-08T03:38:32;1.90;99.90
3752;DHT22;50827;47.014;7.652;2024-03-08T03:41:00;1.90;99.90
3752;DHT22;50827;47.014;7.652;2024-03-08T03:43:37;1.90;99.90
3752;DHT22;50827;47.014;7.652;2024-03-08T03:46:08;1.90;99.90
3752;DHT22;50827;47.014;7.652;2024-03-08T03:48:37;1.90;99.90
3752;DHT22;50827;47.014;7.652;2024-03-08T03:51:04;1.90;99.90
3752;DHT22;50827;47.014;7.652;2024-03-08T03:53:31;2.00;99.90
3752;DHT22;50827;47.014;7.652;2024-03-08T03:55:57;2.00;99.90
3752;DHT22;50827;47.014;7.652;2024-03-08T03:58:25;2.00;99.90
3752;DHT22;50827;47.014;7.652;2024-03-08T04:00:53;2.00;99.90
3752;DHT22;50827;47.014;7.652;2024-03-08T04:03:20;2.00;99.90
3752;DHT22;50827;47.014;7.652;2024-03-08T04:05:47;2.00;99.90
3752;DHT22;50827;47.014;7.652;2024-03-08T04:08:14;2.00;99.90
3752;DHT22;50827;47.014;7.652;2024-03-08T04:10:41;1.90;99.90
3752;DHT22;50827;47.014;7.652;2024-03-08T04:13:10;1.90;99.90
3752;DHT22;50827;47.014;7.652;2024-03-08T04:15:37;1.90;99.90
3752;DHT22;50827;47.014;7.652;2024-03-08T04:18:04;1.90;99.90
3752;DHT22;50827;47.014;7.652;2024-03-08T04:20:31;1.90;99.90
3752;DHT22;50827;47.014;7.652;2024-03-08T04:22:58;1.90;99.90
3752;DHT22;50827;47.014;7.652;2024-03-08T04:25:25;1.90;99.90
3752;DHT22;50827;47.014;7.652;2024-03-08T04:27:53;1.90;99.90
3752;DHT22;50827;47.014;7.652;2024-03-08T04:30:20;1.90;99.90
3752;DHT22;50827;47.014;7.652;2024-03-08T04:32:48;1.90;99.90
3752;DHT22;50827;47.014;7.652;2024-03-08T04:35:15;1.80;99.90
3752;DHT22;50827;47.014;7.652;2024-03-08T04:37:42;1.80;99.90
3752;DHT22;50827;47.014;7.652;2024-03-08T04:40:09;1.80;99.90
3752;DHT22;50827;47.014;7.652;2024-03-08T04:42:37;1.80;99.90
3752;DHT22;50827;47.014;7.652;2024-03-08T04:45:05;1.80;99.90
3752;DHT22;50827;47.014;7.652;2024-03-08T04:47:34;1.80;99.90
3752;DHT22;50827;47.014;7.652;2024-03-08T04:50:03;1.80;99.90
3752;DHT22;50827;47.014;7.652;2024-03-08T04:52:31;1.70;99.90
3752;DHT22;50827;47.014;7.652;2024-03-08T04:54:57;1.70;99.90
3752;DHT22;50827;47.014;7.652;2024-03-08T04:57:24;1.70;99.90
3752;DHT22;50827;47.014;7.652;2024-03-08T04:59:52;1.60;99.90
3752;DHT22;50827;47.014;7.652;2024-03-08T05:02:19;1.60;99.90
3752;DHT22;50827;47.014;7.652;2024-03-08T05:04:49;1.60;99.90
3752;DHT22;50827;47.014;7.652;2024-03-08T05:07:16;1.60;99.90
3752;DHT22;50827;47.014;7.652;2024-03-08T05:09:42;1.50;99.90
3752;DHT22;50827;47.014;7.652;2024-03-08T05:12:12;1.50;99.90
3752;DHT22;50827;47.014;7.652;2024-03-08T05:14:39;1.50;99.90
3752;DHT22;50827;47.014;7.652;2024-03-08T05:17:06;1.50;99.90
3752;DHT22;50827;47.014;7.652;2024-03-08T05:19:33;1.50;99.90
3752;DHT22;50827;47.014;7.652;2024-03-08T05:22:01;1.40;99.90
3752;DHT22;50827;47.014;7.652;2024-03-08T05:24:28;1.40;99.90
3752;DHT22;50827;47.014;7.652;2024-03-08T05:26:56;1.40;99.90
3752;DHT22;50827;47.014;7.652;2024-03-08T05:29:23;1.40;99.90
3752;DHT22;50827;47.014;7.652;2024-03-08T05:31:51;1.40;99.90
3752;DHT22;50827;47.014;7.652;2024-03-08T05:34:21;1.40;99.90
3752;DHT22;50827;47.014;7.652;2024-03-08T05:36:49;1.40;99.90
3752;DHT22;50827;47.014;7.652;2024-03-08T05:39:17;1.40;99.90
3752;DHT22;50827;47.014;7.652;2024-03-08T05:41:44;1.40;99.90
3752;DHT22;50827;47.014;7.652;2024-03-08T05:44:12;1.40;99.90
3752;DHT22;50827;47.014;7.652;2024-03-08T05:46:39;1.50;99.90
3752;DHT22;50827;47.014;7.652;2024-03-08T05:49:14;1.50;99.90
3752;DHT22;50827;47.014;7.652;2024-03-08T05:51:41;1.50;99.90
3752;DHT22;50827;47.014;7.652;2024-03-08T05:54:10;1.50;99.90
3752;DHT22;50827;47.014;7.652;2024-03-08T05:56:39;1.50;99.90
3752;DHT22;50827;47.014;7.652;2024-03-08T05:59:11;1.50;99.90
3752;DHT22;50827;47.014;7.652;2024-03-08T06:01:38;1.50;99.90
3752;DHT22;50827;47.014;7.652;2024-03-08T06:04:08;1.60;99.90
3752;DHT22;50827;47.014;7.652;2024-03-08T06:06:36;1.60;99.90
3752;DHT22;50827;47.014;7.652;2024-03-08T06:09:04;1.60;99.90
3752;DHT22;50827;47.014;7.652;2024-03-08T06:11:39;1.60;99.90
3752;DHT22;50827;47.014;7.652;2024-03-08T06:14:06;1.60;99.90
3752;DHT22;50827;47.014;7.652;2024-03-08T06:16:33;1.60;99.90
3752;DHT22;50827;47.014;7.652;2024-03-08T06:19:00;1.60;99.90
3752;DHT22;50827;47.014;7.652;2024-03-08T06:21:29;1.50;99.90
3752;DHT22;50827;47.014;7.652;2024-03-08T06:23:56;1.60;99.90
3752;DHT22;50827;47.014;7.652;2024-03-08T06:26:25;1.60;99.90
3752;DHT22;50827;47.014;7.652;2024-03-08T06:28:56;1.60;99.90
3752;DHT22;50827;47.014;7.652;2024-03-08T06:31:23;1.70;99.90
3752;DHT22;50827;47.014;7.652;2024-03-08T06:33:50;1.50;99.90
3752;DHT22;50827;47.014;7.652;2024-03-08T06:36:17;1.50;99.90
3752;DHT22;50827;47.014;7.652;2024-03-08T06:38:51;1.60;99.90
3752;DHT22;50827;47.014;7.652;2024-03-08T06:41:18;1.60;99.90
3752;DHT22;50827;47.014;7.652;2024-03-08T06:43:46;1.60;99.90
3752;DHT22;50827;47.014;7.652;2024-03-08T06:46:17;1.60;99.90
3752;DHT22;50827;47.014;7.652;2024-03-08T06:48:44;1.70;99.90
3752;DHT22;50827;47.014;7.652;2024-03-08T06:51:14;1.70;99.90
3752;DHT22;50827;47.014;7.652;2024-03-08T06:53:41;1.70;99.90
3752;DHT22;50827;47.014;7.652;2024-03-08T06:56:08;1.70;99.90
3752;DHT22;50827;47.014;7.652;2024-03-08T06:58:35;1.70;99.90
3752;DHT22;50827;47.014;7.652;2024-03-08T07:01:02;1.70;99.90
3752;DHT22;50827;47.014;7.652;2024-03-08T07:03:30;1.70;99.90
3752;DHT22;50827;47.014;7.652;2024-03-08T07:05:58;1.70;99.90
3752;DHT22;50827;47.014;7.652;2024-03-08T07:08:25;1.70;99.90
3752;DHT22;50827;47.014;7.652;2024-03-08T07:10:54;1.80;99.90
3752;DHT22;50827;47.014;7.652;2024-03-08T07:13:21;1.80;99.90
3752;DHT22;50827;47.014;7.652;2024-03-08T07:15:48;1.80;99.90
3752;DHT22;50827;47.014;7.652;2024-03-08T07:18:14;1.90;99.90
3752;DHT22;50827;47.014;7.652;2024-03-08T07:20:42;1.90;99.90
3752;DHT22;50827;47.014;7.652;2024-03-08T07:23:10;1.90;99.90
3752;DHT22;50827;47.014;7.652;2024-03-08T07:25:40;2.00;99.90
3752;DHT22;50827;47.014;7.652;2024-03-08T07:28:08;2.00;99.90
3752;DHT22;50827;47.014;7.652;2024-03-08T07:30:39;2.00;99.90
3752;DHT22;50827;47.014;7.652;2024-03-08T07:33:12;2.00;99.90
3752;DHT22;50827;47.014;7.652;2024-03-08T07:35:40;2.00;99.90
3752;DHT22;50827;47.014;7.652;2024-03-08T07:38:07;2.10;99.90
3752;DHT22;50827;47.014;7.652;2024-03-08T07:40:36;2.10;99.90
3752;DHT22;50827;47.014;7.652;2024-03-08T07:43:06;2.10;99.90
3752;DHT22;50827;47.014;7.652;2024-03-08T07:45:33;2.20;99.90
3752;DHT22;50827;47.014;7.652;2024-03-08T07:48:00;2.30;99.90
3752;DHT22;50827;47.014;7.652;2024-03-08T07:50:26;2.30;99.90
3752;DHT22;50827;47.014;7.652;2024-03-08T07:52:53;2.30;99.90
3752;DHT22;50827;47.014;7.652;2024-03-08T07:55:21;2.40;99.90
3752;DHT22;50827;47.014;7.652;2024-03-08T07:57:51;2.40;99.90
3752;DHT22;50827;47.014;7.652;2024-03-08T08:00:18;2.50;99.90
3752;DHT22;50827;47.014;7.652;2024-03-08T08:02:45;2.50;99.90
3752;DHT22;50827;47.014;7.652;2024-03-08T08:05:12;2.60;99.90
3752;DHT22;50827;47.014;7.652;2024-03-08T08:07:40;2.60;99.90
3752;DHT22;50827;47.014;7.652;2024-03-08T08:10:10;2.70;99.90
3752;DHT22;50827;47.014;7.652;2024-03-08T08:12:45;2.80;99.90
3752;DHT22;50827;47.014;7.652;2024-03-08T08:15:12;2.80;99.90
3752;DHT22;50827;47.014;7.652;2024-03-08T08:17:39;2.90;99.90
3752;DHT22;50827;47.014;7.652;2024-03-08T08:20:06;3.00;99.90
3752;DHT22;50827;47.014;7.652;2024-03-08T08:22:33;3.00;99.90
3752;DHT22;50827;47.014;7.652;2024-03-08T08:25:00;3.10;99.90
3752;DHT22;50827;47.014;7.652;2024-03-08T08:27:28;3.10;99.90
3752;DHT22;50827;47.014;7.652;2024-03-08T08:29:55;3.10;99.90
3752;DHT22;50827;47.014;7.652;2024-03-08T08:32:22;3.40;99.90
3752;DHT22;50827;47.014;7.652;2024-03-08T08:34:49;3.50;99.90
3752;DHT22;50827;47.014;7.652;2024-03-08T08:37:16;3.40;99.90
3752;DHT22;50827;47.014;7.652;2024-03-08T08:39:45;3.50;99.90
3752;DHT22;50827;47.014;7.652;2024-03-08T08:42:12;3.50;99.90
3752;DHT22;50827;47.014;7.652;2024-03-08T08:44:39;3.60;99.90
3752;DHT22;50827;47.014;7.652;2024-03-08T08:47:06;3.60;99.90
3752;DHT22;50827;47.014;7.652;2024-03-08T08:49:41;3.60;99.90
3752;DHT22;50827;47.014;7.652;2024-03-08T08:52:09;3.60;99.90
3752;DHT22;50827;47.014;7.652;2024-03-08T08:54:43;3.60;99.90
3752;DHT22;50827;47.014;7.652;2024-03-08T08:57:15;3.50;99.90
3752;DHT22;50827;47.014;7.652;2024-03-08T08:59:41;3.50;99.90
3752;DHT22;50827;47.014;7.652;2024-03-08T09:02:08;3.50;99.90
3752;DHT22;50827;47.014;7.652;2024-03-08T09:04:38;3.50;99.90
3752;DHT22;50827;47.014;7.652;2024-03-08T09:07:05;3.60;99.90
3752;DHT22;50827;47.014;7.652;2024-03-08T09:09:33;3.60;99.90
3752;DHT22;50827;47.014;7.652;2024-03-08T09:12:00;3.60;99.90
3752;DHT22;50827;47.014;7.652;2024-03-08T09:14:27;3.60;99.90
3752;DHT22;50827;47.014;7.652;2024-03-08T09:16:54;3.70;99.90
3752;DHT22;50827;47.014;7.652;2024-03-08T09:19:21;3.70;99.90
3752;DHT22;50827;47.014;7.652;2024-03-08T09:21:49;3.70;99.90
3752;DHT22;50827;47.014;7.652;2024-03-08T09:24:18;3.80;99.90
3752;DHT22;50827;47.014;7.652;2024-03-08T09:26:44;3.90;99.90
3752;DHT22;50827;47.014;7.652;2024-03-08T09:29:11;3.90;99.90
3752;DHT22;50827;47.014;7.652;2024-03-08T09:31:38;4.00;99.90
3752;DHT22;50827;47.014;7.652;2024-03-08T09:34:05;4.00;99.90
3752;DHT22;50827;47.014;7.652;2024-03-08T09:36:36;4.00;99.90
3752;DHT22;50827;47.014;7.652;2024-03-08T09:39:03;4.10;99.90
3752;DHT22;50827;47.014;7.652;2024-03-08T09:41:34;4.10;99.90
3752;DHT22;50827;47.014;7.652;2024-03-08T09:44:01;4.10;99.90
3752;DHT22;50827;47.014;7.652;2024-03-08T09:46:28;4.20;99.90
3752;DHT22;50827;47.014;7.652;2024-03-08T09:48:55;4.20;99.90
3752;DHT22;50827;47.014;7.652;2024-03-08T09:51:27;4.30;99.90
3752;DHT22;50827;47.014;7.652;2024-03-08T09:53:54;4.30;99.90
3752;DHT22;50827;47.014;7.652;2024-03-08T09:56:22;4.30;99.90
3752;DHT22;50827;47.014;7.652;2024-03-08T09:58:50;4.30;99.90
3752;DHT22;50827;47.014;7.652;2024-03-08T10:01:35;4.50;99.90
3752;DHT22;50827;47.014;7.652;2024-03-08T10:04:02;4.50;99.90
3752;DHT22;50827;47.014;7.652;2024-03-08T10:06:29;4.40;99.90
3752;DHT22;50827;47.014;7.652;2024-03-08T10:08:56;4.30;99.90
3752;DHT22;50827;47.014;7.652;2024-03-08T10:11:26;4.40;99.90
3752;DHT22;50827;47.014;7.652;2024-03-08T10:13:54;4.40;99.90
3752;DHT22;50827;47.014;7.652;2024-03-08T10:16:21;4.60;99.90
3752;DHT22;50827;47.014;7.652;2024-03-08T10:18:50;4.60;99.90
3752;DHT22;50827;47.014;7.652;2024-03-08T10:21:19;4.70;99.90
3752;DHT22;50827;47.014;7.652;2024-03-08T10:23:46;4.70;99.90
3752;DHT22;50827;47.014;7.652;2024-03-08T10:26:18;4.70;99.90
3752;DHT22;50827;47.014;7.652;2024-03-08T10:28:49;4.80;99.90
3752;DHT22;50827;47.014;7.652;2024-03-08T10:31:19;4.80;99.90
3752;DHT22;50827;47.014;7.652;2024-03-08T10:33:46;4.90;99.90
3752;DHT22;50827;47.014;7.652;2024-03-08T10:36:14;5.00;99.90
3752;DHT22;50827;47.014;7.652;2024-03-08T10:38:42;5.10;99.90
3752;DHT22;50827;47.014;7.652;2024-03-08T10:41:13;5.10;99.90
3752;DHT22;50827;47.014;7.652;2024-03-08T10:44:07;5.20;99.90
3752;DHT22;50827;47.014;7.652;2024-03-08T10:47:00;5.20;99.90
3752;DHT22;50827;47.014;7.652;2024-03-08T10:49:38;5.20;99.90
3752;DHT22;50827;47.014;7.652;2024-03-08T10:52:06;5.20;99.90
3752;DHT22;50827;47.014;7.652;2024-03-08T10:54:37;5.30;99.90
3752;DHT22;50827;47.014;7.652;2024-03-08T10:57:12;5.30;99.90
3752;DHT22;50827;47.014;7.652;2024-03-08T10:59:40;5.30;99.90
3752;DHT22;50827;47.014;7.652;2024-03-08T11:02:12;5.30;99.90
3752;DHT22;50827;47.014;7.652;2024-03-08T11:04:46;5.40;99.90
3752;DHT22;50827;47.014;7.652;2024-03-08T11:07:13;5.40;99.90
3752;DHT22;50827;47.014;7.652;2024-03-08T11:09:44;5.50;99.90
3752;DHT22;50827;47.014;7.652;2024-03-08T11:14:50;5.50;99.90
3752;DHT22;50827;47.014;7.652;2024-03-08T11:17:39;5.60;99.90
3752;DHT22;50827;47.014;7.652;2024-03-08T11:20:10;5.70;99.90
3752;DHT22;50827;47.014;7.652;2024-03-08T11:22:55;5.70;99.90
3752;DHT22;50827;47.014;7.652;2024-03-08T11:28:16;5.90;99.90
3752;DHT22;50827;47.014;7.652;2024-03-08T11:30:45;5.90;99.90
3752;DHT22;50827;47.014;7.652;2024-03-08T11:33:15;5.90;99.90
3752;DHT22;50827;47.014;7.652;2024-03-08T11:35:42;5.90;99.90
3752;DHT22;50827;47.014;7.652;2024-03-08T11:38:12;5.90;99.90
3752;DHT22;50827;47.014;7.652;2024-03-08T11:40:40;6.00;99.90
3752;DHT22;50827;47.014;7.652;2024-03-08T11:43:07;6.00;99.90
3752;DHT22;50827;47.014;7.652;2024-03-08T11:45:36;6.00;99.90
3752;DHT22;50827;47.014;7.652;2024-03-08T11:48:04;6.10;99.90
3752;DHT22;50827;47.014;7.652;2024-03-08T11:50:31;6.10;99.90
3752;DHT22;50827;47.014;7.652;2024-03-08T11:53:05;6.10;99.90
3752;DHT22;50827;47.014;7.652;2024-03-08T11:55:35;6.20;99.90
3752;DHT22;50827;47.014;7.652;2024-03-08T11:58:03;6.30;99.90
3752;DHT22;50827;47.014;7.652;2024-03-08T12:00:31;6.40;99.90
3752;DHT22;50827;47.014;7.652;2024-03-08T12:03:08;6.50;99.90
3752;DHT22;50827;47.014;7.652;2024-03-08T12:05:38;6.60;99.90
3752;DHT22;50827;47.014;7.652;2024-03-08T12:08:05;6.70;99.90
3752;DHT22;50827;47.014;7.652;2024-03-08T12:10:34;6.70;99.90
3752;DHT22;50827;47.014;7.652;2024-03-08T12:13:02;6.80;99.90
3752;DHT22;50827;47.014;7.652;2024-03-08T12:15:31;6.90;99.90
3752;DHT22;50827;47.014;7.652;2024-03-08T12:18:00;7.00;99.90
3752;DHT22;50827;47.014;7.652;2024-03-08T12:20:28;7.70;99.90
3752;DHT22;50827;47.014;7.652;2024-03-08T12:22:57;7.60;99.90
3752;DHT22;50827;47.014;7.652;2024-03-08T12:25:30;7.50;99.90
3752;DHT22;50827;47.014;7.652;2024-03-08T12:28:08;7.50;99.90
3752;DHT22;50827;47.014;7.652;2024-03-08T12:30:50;7.60;99.90
3752;DHT22;50827;47.014;7.652;2024-03-08T12:33:21;7.60;99.90
3752;DHT22;50827;47.014;7.652;2024-03-08T12:35:53;7.60;99.90
3752;DHT22;50827;47.014;7.652;2024-03-08T12:38:22;7.60;99.90
3752;DHT22;50827;47.014;7.652;2024-03-08T12:40:58;7.50;99.90
3752;DHT22;50827;47.014;7.652;2024-03-08T12:43:26;7.50;99.90
3752;DHT22;50827;47.014;7.652;2024-03-08T12:45:55;7.50;99.90
3752;DHT22;50827;47.014;7.652;2024-03-08T12:48:22;7.50;99.90
3752;DHT22;50827;47.014;7.652;2024-03-08T12:50:48;7.50;99.90
3752;DHT22;50827;47.014;7.652;2024-03-08T12:53:17;7.50;99.90
3752;DHT22;50827;47.014;7.652;2024-03-08T12:55:44;7.50;99.90
3752;DHT22;50827;47.014;7.652;2024-03-08T12:58:11;7.50;99.90
3752;DHT22;50827;47.014;7.652;2024-03-08T13:00:38;7.60;99.90
3752;DHT22;50827;47.014;7.652;2024-03-08T13:03:09;7.60;99.90
3752;DHT22;50827;47.014;7.652;2024-03-08T13:05:38;7.60;99.90
3752;DHT22;50827;47.014;7.652;2024-03-08T13:08:07;7.60;99.90
3752;DHT22;50827;47.014;7.652;2024-03-08T13:10:42;7.60;99.90
3752;DHT22;50827;47.014;7.652;2024-03-08T13:13:12;7.60;99.90
3752;DHT22;50827;47.014;7.652;2024-03-08T13:15:43;7.60;99.90
3752;DHT22;50827;47.014;7.652;2024-03-08T13:18:09;7.60;99.90
3752;DHT22;50827;47.014;7.652;2024-03-08T13:20:37;7.50;99.90
3752;DHT22;50827;47.014;7.652;2024-03-08T13:23:13;7.50;99.90
3752;DHT22;50827;47.014;7.652;2024-03-08T13:25:40;7.50;99.90
3752;DHT22;50827;47.014;7.652;2024-03-08T13:28:08;7.50;99.90
3752;DHT22;50827;47.014;7.652;2024-03-08T13:30:35;7.60;99.90
3752;DHT22;50827;47.014;7.652;2024-03-08T13:33:02;7.60;99.90
3752;DHT22;50827;47.014;7.652;2024-03-08T13:35:32;7.70;99.90
3752;DHT22;50827;47.014;7.652;2024-03-08T13:37:59;7.80;99.90
3752;DHT22;50827;47.014;7.652;2024-03-08T13:40:26;7.80;99.90
3752;DHT22;50827;47.014;7.652;2024-03-08T13:42:53;7.80;99.90
3752;DHT22;50827;47.014;7.652;2024-03-08T13:45:20;7.90;99.90
3752;DHT22;50827;47.014;7.652;2024-03-08T13:47:52;7.90;99.90
3752;DHT22;50827;47.014;7.652;2024-03-08T13:50:20;8.00;99.90
3752;DHT22;50827;47.014;7.652;2024-03-08T13:52:51;8.00;99.90
3752;DHT22;50827;47.014;7.652;2024-03-08T13:55:21;8.10;99.90
3752;DHT22;50827;47.014;7.652;2024-03-08T13:57:49;8.20;99.90
3752;DHT22;50827;47.014;7.652;2024-03-08T14:00:18;8.30;99.90
3752;DHT22;50827;47.014;7.652;2024-03-08T14:02:49;8.30;99.90
3752;DHT22;50827;47.014;7.652;2024-03-08T14:05:15;8.40;99.90
3752;DHT22;50827;47.014;7.652;2024-03-08T14:07:43;8.40;99.90
3752;DHT22;50827;47.014;7.652;2024-03-08T14:10:13;8.50;99.90
3752;DHT22;50827;47.014;7.652;2024-03-08T14:12:40;8.50;99.90
3752;DHT22;50827;47.014;7.652;2024-03-08T14:15:08;8.60;99.90
3752;DHT22;50827;47.014;7.652;2024-03-08T14:17:36;8.60;99.90
3752;DHT22;50827;47.014;7.652;2024-03-08T14:20:03;8.70;99.90
3752;DHT22;50827;47.014;7.652;2024-03-08T14:22:32;8.70;99.90
3752;DHT22;50827;47.014;7.652;2024-03-08T14:24:59;8.70;99.90
3752;DHT22;50827;47.014;7.652;2024-03-08T14:27:29;8.70;99.90
3752;DHT22;50827;47.014;7.652;2024-03-08T14:29:55;8.70;99.90
3752;DHT22;50827;47.014;7.652;2024-03-08T14:32:22;8.70;99.90
3752;DHT22;50827;47.014;7.652;2024-03-08T14:34:50;8.60;99.90
3752;DHT22;50827;47.014;7.652;2024-03-08T14:37:17;8.60;99.90
3752;DHT22;50827;47.014;7.652;2024-03-08T14:39:45;8.50;99.90
3752;DHT22;50827;47.014;7.652;2024-03-08T14:42:13;8.50;99.90
3752;DHT22;50827;47.014;7.652;2024-03-08T14:44:41;8.40;99.90
3752;DHT22;50827;47.014;7.652;2024-03-08T14:47:08;8.40;99.90
3752;DHT22;50827;47.014;7.652;2024-03-08T14:49:34;8.40;99.90
3752;DHT22;50827;47.014;7.652;2024-03-08T14:52:03;8.40;99.90
3752;DHT22;50827;47.014;7.652;2024-03-08T14:54:41;8.30;99.90
3752;DHT22;50827;47.014;7.652;2024-03-08T14:57:09;8.40;99.90
3752;DHT22;50827;47.014;7.652;2024-03-08T14:59:36;8.40;99.90
3752;DHT22;50827;47.014;7.652;2024-03-08T15:02:04;8.40;99.90
3752;DHT22;50827;47.014;7.652;2024-03-08T15:04:34;8.50;99.90
3752;DHT22;50827;47.014;7.652;2024-03-08T15:07:03;8.50;99.90
3752;DHT22;50827;47.014;7.652;2024-03-08T15:09:32;8.50;99.90
3752;DHT22;50827;47.014;7.652;2024-03-08T15:12:06;8.60;99.90
3752;DHT22;50827;47.014;7.652;2024-03-08T15:14:33;8.60;99.90
3752;DHT22;50827;47.014;7.652;2024-03-08T15:17:00;8.70;99.90
3752;DHT22;50827;47.014;7.652;2024-03-08T15:19:33;8.70;99.90
3752;DHT22;50827;47.014;7.652;2024-03-08T15:22:00;8.70;99.90
3752;DHT22;50827;47.014;7.652;2024-03-08T15:24:28;8.70;99.90
3752;DHT22;50827;47.014;7.652;2024-03-08T15:26:55;8.70;99.90
3752;DHT22;50827;47.014;7.652;2024-03-08T15:29:22;8.70;99.90
3752;DHT22;50827;47.014;7.652;2024-03-08T15:31:53;8.80;99.90
3752;DHT22;50827;47.014;7.652;2024-03-08T15:34:20;8.80;99.90
3752;DHT22;50827;47.014;7.652;2024-03-08T15:36:52;8.80;99.90
3752;DHT22;50827;47.014;7.652;2024-03-08T15:39:20;8.80;99.90
3752;DHT22;50827;47.014;7.652;2024-03-08T15:41:51;8.90;99.90
3752;DHT22;50827;47.014;7.652;2024-03-08T15:44:18;8.90;99.90
3752;DHT22;50827;47.014;7.652;2024-03-08T15:46:44;8.90;99.90
3752;DHT22;50827;47.014;7.652;2024-03-08T15:49:12;8.90;99.90
3752;DHT22;50827;47.014;7.652;2024-03-08T15:51:39;9.00;99.90
3752;DHT22;50827;47.014;7.652;2024-03-08T15:54:07;9.00;99.90
3752;DHT22;50827;47.014;7.652;2024-03-08T15:56:37;9.00;99.90
3752;DHT22;50827;47.014;7.652;2024-03-08T15:59:04;8.90;99.90
3752;DHT22;50827;47.014;7.652;2024-03-08T16:01:34;9.00;99.90
3752;DHT22;50827;47.014;7.652;2024-03-08T16:04:01;8.90;99.90
3752;DHT22;50827;47.014;7.652;2024-03-08T16:06:28;8.90;99.90
3752;DHT22;50827;47.014;7.652;2024-03-08T16:08:55;9.00;99.90
3752;DHT22;50827;47.014;7.652;2024-03-08T16:11:22;9.00;99.90
3752;DHT22;50827;47.014;7.652;2024-03-08T16:13:49;9.00;99.90
3752;DHT22;50827;47.014;7.652;2024-03-08T16:16:16;9.00;99.90